• Join FlightAware (Why Join?)
  • Login
  • US Flag 
08:07AM EST


 

Airport Tracker/Info


-or-


 

Live Flight TrackerFlight Track Log ✈ SWA414 ✈ 06-May-2013 ✈ KMDW - KTUL

Flight Track Log - Related Links

Times and Time Zones

All times are in EDT time to prevent confusion due to time zone crossing. See the SWA414 flight status page for this flight to view local times or setup timezone preferences in your user account.

Time Position Orientation Groundspeed Altitude Reporting Facility
EDT Latitude Longitude Course Direction KTS MPH feet Rate Location/Type
07:12PM 41.6425 -87.8169 201° Southwest 261 300 6,500  Level Chicago Center
07:14PM 41.5119 -87.9511 218° Southwest 298 343 12,000 2,340 Climbing Chicago Center
07:15PM 41.2659 -88.2337 201° Southwest  Level FlightAware Approximate
07:16PM 41.1632 -88.2684 201° Southwest  Level FlightAware Approximate
07:16PM 41.3867 -88.1083 223° Southwest 354 407 15,600  Level Kansas City Center
07:16PM 41.3544 -88.1203 196° South 386 444 17,400 3,660 Climbing Chicago Center
07:17PM 41.0626 -88.3187 201° Southwest  Level FlightAware Approximate
07:17PM 41.2528 -88.1744 202° Southwest 396 456 20,400  Level Chicago Center
07:18PM 41.1181 -88.2469 202° Southwest 438 504 23,100 2,400 Climbing Chicago Center
07:19PM 41.0044 -88.3306 209° Southwest 466 536 25,400 2,340 Climbing Chicago Center
07:20PM 40.9042 -88.4406 220° Southwest 479 551 28,000 2,460 Climbing Chicago Center
07:21PM 40.8194 -88.5694 229° Southwest 468 539 30,600 2,100 Climbing Chicago Center
07:23PM 40.6536 -88.7864 225° Southwest 471 542 34,100 1,980 Climbing Kansas City Center
07:25PM 40.4517 -89.0581 226° Southwest 467 537 38,400 1,920 Climbing Kansas City Center
07:25PM 40.4325 -89.0842 226° Southwest 474 545 38,700 1,200 Climbing Chicago Center
07:26PM 40.3417 -89.2047 225° Southwest 466 536 40,000 600 Climbing Chicago Center
07:27PM 40.2528 -89.3233 226° Southwest 458 527 40,000  Level Chicago Center
07:28PM 40.1600 -89.4433 225° Southwest 464 534 40,000  Level Chicago Center
07:29PM 40.0683 -89.5642 225° Southwest 465 535 40,000  Level Chicago Center
07:30PM 39.9936 -89.6631 225° Southwest 466 536 40,000  Level Kansas City Center
07:31PM 39.9025 -89.7822 225° Southwest 464 534 40,000  Level Kansas City Center
07:33PM 39.6828 -90.0619 224° Southwest 463 533 40,000  Level Chicago Center
07:34PM 39.6244 -90.1431 227° Southwest 461 531 40,000  Level Kansas City Center
07:35PM 39.5147 -90.2831 225° Southwest 462 532 40,000  Level Kansas City Center
07:36PM 39.4242 -90.4014 225° Southwest 464 534 40,000  Level Kansas City Center
07:37PM 39.3311 -90.5186 224° Southwest 468 539 40,000  Level Kansas City Center
07:38PM 39.2392 -90.6358 225° Southwest 468 539 40,000  Level Kansas City Center
07:39PM 39.1489 -90.7503 225° Southwest 463 533 40,000  Level Kansas City Center
07:40PM 39.0550 -90.8667 224° Southwest 467 537 40,000  Level Kansas City Center
07:42PM 38.9626 -90.9669 220° Southwest  Level FlightAware Approximate
07:42PM 38.8589 -91.1275 220° Southwest 465 535 40,000  Level Kansas City Center
07:43PM 38.7928 -91.2633 238° Southwest 458 527 40,000  Level Kansas City Center
07:45PM 38.7272 -91.3981 238° Southwest 451 519 40,000  Level Kansas City Center
07:46PM 38.6561 -91.5372 237° Southwest 453 521 40,000  Level Kansas City Center
07:48PM 38.5028 -91.8350 237° Southwest 456 525 40,000  Level Kansas City Center
07:49PM 38.4333 -91.9708 237° Southwest 458 527 40,000  Level Kansas City Center
07:50PM 38.3636 -92.1053 237° Southwest 457 526 40,000  Level Kansas City Center
07:51PM 38.2922 -92.2383 236° Southwest 457 526 40,000  Level Kansas City Center
07:52PM 38.2231 -92.3725 237° Southwest 458 527 40,000  Level Kansas City Center
07:53PM 38.1567 -92.5008 237° Southwest 462 532 40,000  Level Kansas City Center
07:54PM 38.0722 -92.6606 236° Southwest 459 528 40,000 -540 Level Kansas City Center
07:55PM 38.0014 -92.7933 236° Southwest 451 519 39,000 -1,020 Descending Kansas City Center
07:56PM 37.9356 -92.9181 236° Southwest 435 501 38,000 -960 Descending Kansas City Center
07:57PM 37.8672 -93.0456 236° Southwest 434 499 37,100 -960 Descending Kansas City Center
07:58PM 37.7972 -93.1758 236° Southwest 442 509 36,100 -960 Descending Kansas City Center
07:59PM 37.7256 -93.3075 235° Southwest 450 518 35,200 -960 Descending Kansas City Center
08:00PM 37.6553 -93.4400 236° Southwest 454 522 34,200 -420 Descending Kansas City Center
08:02PM 37.5499 -93.6151 236° Southwest  Level FlightAware Approximate
08:02PM 37.4975 -93.7306 236° Southwest 454 522 34,000  Level Kansas City Center
08:03PM 37.4253 -93.8628 236° Southwest 456 525 34,000 -540 Level Kansas City Center
08:04PM 37.3533 -93.9942 235° Southwest 456 525 32,900 -960 Descending Kansas City Center
08:05PM 37.2892 -94.1106 235° Southwest 454 522 32,100 -1,020 Descending Kansas City Center
08:06PM 37.2036 -94.2647 235° Southwest 450 518 30,900 -1,020 Descending Kansas City Center
08:08PM 37.1024 -94.4132 229° Southwest  Level FlightAware Approximate
08:08PM 37.0578 -94.5275 229° Southwest 460 529 29,000  Level Kansas City Center
08:09PM 36.9836 -94.6608 235° Southwest 465 535 27,700 -2,580 Descending Kansas City Center
08:10PM 36.9097 -94.7928 235° Southwest 465 535 23,800 -3,660 Descending Kansas City Center
08:11PM 36.8392 -94.9200 235° Southwest 453 521 20,200 -3,420 Descending Kansas City Center
08:12PM 36.7719 -95.0386 235° Southwest 430 495 16,800 -3,360 Descending Kansas City Center
08:13PM 36.7044 -95.1544 234° Southwest 416 479 13,400 -3,540 Descending Kansas City Center
08:14PM 36.6597 -95.2294 233° Southwest 399 459 11,500 -2,340 Descending Kansas City Center
08:14PM 36.6228 -95.2750 225° Southwest 381 438 11,000 -1,020 Descending Kansas City Center
08:15PM 36.5831 -95.3078 214° Southwest 348 400 10,500 -1,140 Descending Kansas City Center
08:16PM 36.5142 -95.3614 212° Southwest 306 352 9,500 -1,140 Descending Kansas City Center
08:16PM 36.4736 -95.3939 213° Southwest 311 358 8,700 -1,320 Descending Kansas City Center
08:17PM 36.4097 -95.4433 212° Southwest 297 342 7,300 -1,620 Descending Kansas City Center
08:18PM 36.3803 -95.4836 228° Southwest 285 328 6,400 -1,860 Descending Kansas City Center
08:18PM 36.3503 -95.5319 232° Southwest 292 336 5,400 -1,560 Descending Kansas City Center
08:20PM 36.2922 -95.6253 232° Southwest 262 302 3,500 -1,440 Descending Kansas City Center
08:20PM 36.2625 -95.6744 233° Southwest 266 306 2,500 -1,020 Descending Kansas City Center
08:21PM 36.2517 -95.6903 230° Southwest 239 275 2,500 60 Level Kansas City Center
08:22PM 36.2278 -95.7308 234° Southwest 229 264 2,600 -120 Climbing Kansas City Center
08:23PM 36.1994 -95.7814 235° Southwest 199 229 2,300 -540 Descending Kansas City Center
08:23PM 36.1961 -95.8011 258° West 136 157 1,900 -900 Descending Kansas City Center
08:24PM 36.1958 -95.8267 269° West 156 180 1,400 -660 Descending Kansas City Center
08:25PM 36.1958 -95.8728 270° West 141 162 800 -600 Descending Kansas City Center
08:27PM 36.1833 -95.8833 230° Southwest  Level FlightAware Approximate